Time;durP1;ratioP1;P1;durP2;ratioP2;P2;SDS_P1;SDS_P2;PMS_P1;PMS_P2;Temp;Humidity;BMP_temperature;BMP_pressure;BME280_temperature;BME280_humidity;BME280_pressure;Samples;Min_cycle;Max_cycle;Signal;HPM_P1;HPM_P2
2021/06/11 00:02:37;;;;;;;73.15;36.30;;;;;;;16.14;71.62;92865.81;5007388;28;20050;-90
2021/06/11 00:05:41;;;;;;;68.40;36.70;;;;;;;16.47;71.51;92920.06;5009670;28;20427;-91
2021/06/11 00:08:55;;;;;;;69.68;37.30;;;;;;;16.45;71.75;92913.22;4974443;28;20529;-91
2021/06/11 00:11:55;;;;;;;60.97;34.40;;;;;;;16.09;71.94;92859.94;4962972;28;20053;-90
2021/06/11 00:14:50;;;;;;;65.30;35.63;;;;;;;16.09;71.69;92863.34;5013191;28;20511;-91
2021/06/11 00:18:02;;;;;;;73.78;38.67;;;;;;;16.01;71.96;92851.72;5000028;28;20184;-91
2021/06/11 00:20:47;;;;;;;69.75;38.70;;;;;;;15.98;72.16;92849.66;4979749;28;20062;-90
2021/06/11 00:26:42;;;;;;;71.40;38.28;;;;;;;16.13;72.28;92876.72;4987506;28;20047;-90
2021/06/11 00:29:44;;;;;;;70.93;38.97;;;;;;;15.94;72.24;92859.31;4989135;28;20145;-90
2021/06/11 00:36:26;;;;;;;77.72;40.53;;;;;;;16.03;72.04;92875.94;4984814;28;20038;-92
2021/06/11 00:43:38;;;;;;;61.97;33.63;;;;;;;15.82;71.93;92844.06;4975627;28;20107;-91
2021/06/11 00:47:00;;;;;;;;;;;;;;;;;;;;;
2021/06/11 00:50:09;;;;;;;;;;;;;;;;;;;;;
2021/06/11 00:53:13;;;;;;;61.13;34.40;;;;;;;15.80;71.90;92851.53;4991630;28;20046;-90
2021/06/11 00:58:58;;;;;;;60.45;34.53;;;;;;;15.90;72.11;92876.84;4973296;28;20061;-90
2021/06/11 01:02:20;;;;;;;63.60;34.58;;;;;;;15.88;72.28;92879.03;4996193;28;20120;-90
2021/06/11 01:05:46;;;;;;;;;;;;;;;;;;;;;
2021/06/11 01:08:20;;;;;;;57.83;33.15;;;;;;;15.98;72.54;92909.63;4975538;28;20042;-91
2021/06/11 01:11:36;;;;;;;65.30;35.00;;;;;;;15.56;72.60;92853.81;5011203;28;20042;-91
2021/06/11 01:14:24;;;;;;;65.43;36.77;;;;;;;15.58;72.59;92860.31;5018706;28;20421;-92
2021/06/11 01:20:51;;;;;;;69.70;34.95;;;;;;;15.90;73.03;92905.91;5012884;28;20041;-91
2021/06/11 01:24:45;;;;;;;;;;;;;;;;;;;;;
2021/06/11 01:28:09;;;;;;;;;;;;;;;;;;;;;
2021/06/11 01:31:15;;;;;;;71.40;37.10;;;;;;;15.73;73.09;92892.66;5013904;28;20042;-91
2021/06/11 01:34:20;;;;;;;67.85;37.15;;;;;;;15.57;73.15;92873.81;4974481;28;20046;-90
2021/06/11 01:38:02;;;;;;;71.03;38.20;;;;;;;15.55;73.30;92876.75;4983649;28;20061;-91
2021/06/11 01:43:52;;;;;;;72.75;36.55;;;;;;;15.44;73.27;92858.88;4998048;28;20113;-91
2021/06/11 01:47:12;;;;;;;;;;;;;;;;;;;;;
2021/06/11 01:50:18;;;;;;;61.67;34.97;;;;;;;15.67;73.08;92896.50;5003932;28;20068;-91
2021/06/11 01:53:48;;;;;;;;;;;;;;;;;;;;;
2021/06/11 01:56:53;;;;;;;65.93;33.92;;;;;;;15.74;73.92;92910.06;4995526;28;20058;-91
2021/06/11 02:00:00;;;;;;;;;;;;;;;;;;;;;
2021/06/11 02:03:10;;;;;;;59.28;33.95;;;;;;;15.73;74.59;92903.22;5003222;28;20045;-89
2021/06/11 02:09:34;;;;;;;62.38;34.67;;;;;;;15.32;74.83;92841.00;4990289;28;20148;-90
2021/06/11 02:12:53;;;;;;;;;;;;;;;;;;;;;
2021/06/11 02:15:51;;;;;;;58.00;31.85;;;;;;;15.32;74.69;92843.66;5021582;28;20389;-90
2021/06/11 02:19:21;;;;;;;63.45;34.10;;;;;;;15.39;74.94;92855.31;5018459;28;20057;-90
2021/06/11 02:22:48;;;;;;;63.45;33.55;;;;;;;15.55;75.44;92889.19;4993277;28;20409;-90
2021/06/11 02:25:45;;;;;;;61.42;33.80;;;;;;;15.15;75.42;92831.19;4996415;28;20050;-90
2021/06/11 02:32:14;;;;;;;62.38;33.47;;;;;;;15.45;75.88;92882.31;4990030;28;20151;-91
2021/06/11 02:35:58;;;;;;;65.57;33.22;;;;;;;15.31;76.00;92865.81;4986551;28;20100;-90
2021/06/11 02:39:05;;;;;;;59.42;33.65;;;;;;;15.34;76.11;92881.06;5017901;28;20041;-90
2021/06/11 02:42:26;;;;;;;67.53;34.20;;;;;;;15.32;76.08;92877.94;5019861;28;20055;-91
2021/06/11 02:46:17;;;;;;;;;;;;;;;;;;;;;
2021/06/11 02:53:49;;;;;;;65.32;34.47;;;;;;;14.86;76.22;92824.59;4938517;29;20082;-90
2021/06/11 02:57:28;;;;;;;64.95;34.72;;;;;;;14.98;76.27;92845.88;4928068;29;20110;-91
2021/06/11 03:00:22;;;;;;;64.07;34.90;;;;;;;15.13;76.55;92854.44;4935031;29;20456;-90
2021/06/11 03:03:37;;;;;;;67.97;35.05;;;;;;;15.17;76.25;92861.44;4917797;29;20514;-90
2021/06/11 03:06:36;;;;;;;66.78;36.58;;;;;;;14.91;75.74;92827.06;4916507;29;20564;-91
2021/06/11 03:10:00;;;;;;;65.28;35.22;;;;;;;15.22;75.88;92870.28;4918659;28;20149;-92
2021/06/11 03:13:10;;;;;;;;;;;;;;;;;;;;;
2021/06/11 03:16:19;;;;;;;67.85;34.72;;;;;;;14.91;75.81;92831.56;5023392;28;20042;-92
2021/06/11 03:19:42;;;;;;;64.38;35.53;;;;;;;14.78;76.13;92812.91;4994932;28;20038;-91
2021/06/11 03:26:10;;;;;;;;;;;;;;;;;;;;;
2021/06/11 03:29:20;;;;;;;59.95;31.73;;;;;;;14.56;76.42;92794.50;5035150;28;20394;-91
2021/06/11 03:32:33;;;;;;;41.60;24.17;;;;;;;14.62;76.04;92798.59;5014373;28;20052;-92
2021/06/11 03:35:54;;;;;;;;;;;;;;;;;;;;;
2021/06/11 03:39:05;;;;;;;34.60;17.63;;;;;;;14.56;74.75;92799.78;5015935;28;20056;-91
2021/06/11 03:42:11;;;;;;;28.55;17.10;;;;;;;14.55;74.11;92800.88;5030954;28;20109;-90
2021/06/11 03:44:59;;;;;;;31.70;17.65;;;;;;;14.44;73.81;92786.38;5004538;28;20045;-91
2021/06/11 03:51:02;;;;;;;34.28;20.48;;;;;;;14.50;74.05;92795.69;5015556;28;20056;-90
2021/06/11 03:54:08;;;;;;;34.05;18.80;;;;;;;14.72;73.77;92827.28;5020116;28;20059;-90
2021/06/11 03:57:40;;;;;;;39.13;19.05;;;;;;;14.75;73.46;92824.06;5020875;28;20052;-90
2021/06/11 04:00:46;;;;;;;;;;;;;;;;;;;;;
2021/06/11 04:03:46;;;;;;;45.47;22.15;;;;;;;14.85;73.91;92827.50;5010287;28;20054;-92
2021/06/11 04:07:05;;;;;;;;;;;;;;;;;;;;;
2021/06/11 04:10:21;;;;;;;;;;;;;;;;;;;;;
2021/06/11 04:17:30;;;;;;;22.83;13.77;;;;;;;14.86;71.54;92794.78;5010437;28;20174;-91
2021/06/11 04:23:52;;;;;;;19.73;10.93;;;;;;;15.10;69.63;92818.91;4993750;28;20372;-91
2021/06/11 04:27:18;;;;;;;;;;;;;;;;;;;;;
2021/06/11 04:33:37;;;;;;;;;;;;;;;;;;;;;
2021/06/11 04:46:37;;;;;;;;;;;;;;;;;;;;;
2021/06/11 04:49:20;;;;;;;45.00;24.27;;;;;;;15.77;71.59;92819.72;5014058;28;20052;-91
2021/06/11 04:52:20;;;;;;;;;;;;;;;;;;;;;
2021/06/11 04:55:47;;;;;;;;;;;;;;;;;;;;;
2021/06/11 04:58:54;;;;;;;;;;;;;;;;;;;;;
2021/06/11 05:09:26;;;;;;;;;;;;;;;;;;;;;
2021/06/11 05:12:38;;;;;;;;;;;;;;;;;;;;;
2021/06/11 05:16:03;;;;;;;;;;;;;;;;;;;;;
2021/06/11 05:19:37;;;;;;;33.83;15.90;;;;;;;17.35;68.54;92853.44;4927716;29;20047;-90
2021/06/11 05:26:15;;;;;;;;;;;;;;;;;;;;;
2021/06/11 05:29:05;;;;;;;32.00;19.17;;;;;;;17.70;67.12;92821.50;4977215;28;20112;-91
2021/06/11 05:32:31;;;;;;;34.85;18.98;;;;;;;18.08;66.89;92847.91;4997444;28;20046;-92
2021/06/11 05:35:45;;;;;;;;;;;;;;;18.14;67.40;92868.88;4987832;28;20303;-92
2021/06/11 05:39:26;;;;;;;23.42;14.95;;;;;;;17.97;66.93;92807.00;4972168;28;19926;-93
2021/06/11 05:49:23;;;;;;;21.17;13.20;;;;;;;22.17;51.91;92819.59;4973327;28;20050;-92
2021/06/11 05:55:58;;;;;;;24.65;12.77;;;;;;;25.00;45.27;92879.38;4967926;28;20050;-91
2021/06/11 05:59:09;;;;;;;18.83;12.02;;;;;;;25.66;43.60;92865.44;4970501;28;20541;-91
2021/06/11 06:02:32;;;;;;;;;;;;;;;;;;;;;
2021/06/11 06:05:57;;;;;;;;;;;;;;;;;;;;;
2021/06/11 06:09:22;;;;;;;15.50;10.40;;;;;;;26.14;38.75;92841.25;4975883;28;20056;-92
2021/06/11 06:12:01;;;;;;;20.05;12.43;;;;;;;23.30;46.89;92844.56;4981644;28;20053;-93
2021/06/11 06:14:58;;;;;;;;;;;;;;;;;;;;;
2021/06/11 06:17:31;;;;;;;17.83;11.20;;;;;;;26.10;39.38;92857.34;5007483;28;20113;-92
2021/06/11 06:20:50;;;;;;;14.85;10.85;;;;;;;25.12;42.35;92881.78;4988686;28;20048;-92
2021/06/11 06:24:15;;;;;;;;;;;;;;;;;;;;;
2021/06/11 06:34:07;;;;;;;;;;;;;;;;;;;;;
2021/06/11 06:38:13;;;;;;;;;;;;;;;;;;;;;
2021/06/11 06:41:16;;;;;;;23.38;12.85;;;;;;;23.17;47.88;92908.84;4976849;28;20508;-92
2021/06/11 06:44:36;;;;;;;18.73;13.38;;;;;;;22.32;53.67;92908.69;4976318;28;20129;-91
2021/06/11 06:47:45;;;;;;;;;;;;;;;;;;;;;
2021/06/11 06:51:11;;;;;;;;;;;;;;;;;;;;;
2021/06/11 06:54:43;;;;;;;26.20;17.40;;;;;;;19.62;59.77;92872.72;4971945;28;20062;-91
2021/06/11 07:01:30;;;;;;;;;;;;;;;;;;;;;
2021/06/11 07:05:15;;;;;;;;;;;;;;;;;;;;;
2021/06/11 07:08:16;;;;;;;;;;;;;;;;;;;;;
2021/06/11 07:11:40;;;;;;;;;;;;;;;;;;;;;
2021/06/11 07:14:59;;;;;;;21.85;13.20;;;;;;;19.31;57.97;92893.38;4948977;29;20043;-93
2021/06/11 07:18:31;;;;;;;;;;;;;;;;;;;;;
2021/06/11 07:25:06;;;;;;;;;;;;;;;;;;;;;
2021/06/11 07:31:46;;;;;;;38.90;21.95;;;;;;;19.43;61.17;92923.69;5011276;28;20108;-92
2021/06/11 07:42:21;;;;;;;;;;;;;;;;;;;;;
2021/06/11 07:45:03;;;;;;;;;;;;;;;;;;;;;
2021/06/11 07:48:03;;;;;;;54.22;29.45;;;;;;;20.17;58.21;92892.59;4940705;29;20055;-92
2021/06/11 07:50:52;;;;;;;44.22;26.45;;;;;;;20.10;59.80;92892.38;4939313;29;20049;-92
2021/06/11 07:53:50;;;;;;;49.88;27.88;;;;;;;20.02;60.38;92887.97;4951677;29;20043;-93
2021/06/11 07:56:57;;;;;;;43.88;26.98;;;;;;;20.74;60.06;92936.00;4952395;28;20046;-92
2021/06/11 08:00:33;;;;;;;50.40;28.63;;;;;;;20.22;61.41;92915.50;4916430;28;20048;-92
2021/06/11 08:03:57;;;;;;;45.15;26.00;;;;;;;20.51;60.22;92879.88;4952844;29;20085;-92
2021/06/11 08:07:30;;;;;;;;;;;;;;;;;;;;;
2021/06/11 08:11:11;;;;;;;50.67;30.33;;;;;;;20.84;59.98;92906.25;4953035;29;20106;-92
2021/06/11 08:22:12;;;;;;;51.10;30.75;;;;;;;20.73;58.62;92895.31;5006803;28;20042;-92
2021/06/11 08:25:23;;;;;;;;;;;;;;;;;;;;;
2021/06/11 08:28:35;;;;;;;42.17;24.17;;;;;;;21.72;56.13;92898.19;5001668;28;20054;-92
2021/06/11 08:35:33;;;;;;;36.85;22.55;;;;;;;21.89;55.09;92913.06;5002340;28;20507;-92
2021/06/11 08:38:51;;;;;;;40.50;24.65;;;;;;;21.85;54.23;92884.78;5010808;28;20042;-92
2021/06/11 08:49:41;;;;;;;34.17;21.95;;;;;;;22.24;53.37;92899.75;5007408;28;20277;-92
2021/06/11 09:10:01;;;;;;;;;;;;;;;;;;;;;
2021/06/11 09:37:16;;;;;;;31.48;19.00;;;;;;;23.15;51.46;92867.59;4935594;29;20441;-93
2021/06/11 09:44:52;;;;;;;27.30;19.48;;;;;;;23.58;50.12;92895.03;4885748;29;20049;-94
2021/06/11 09:51:54;;;;;;;;;;;;;;;;;;;;;
2021/06/11 09:55:46;;;;;;;;;;;;;;;;;;;;;
2021/06/11 09:59:08;;;;;;;38.50;22.30;;;;;;;23.21;52.95;92916.91;4888789;29;20398;-94
2021/06/11 10:23:12;;;;;;;28.95;19.85;;;;;;;22.30;55.29;92867.50;4914522;29;20046;-95
2021/06/11 10:26:18;;;;;;;30.17;19.33;;;;;;;22.77;51.97;92874.50;4924550;29;20043;-94
2021/06/11 10:29:59;;;;;;;25.38;17.75;;;;;;;22.64;53.30;92898.66;4905274;29;20059;-94
2021/06/11 10:33:27;;;;;;;30.63;18.52;;;;;;;22.63;53.03;92851.78;4916206;29;20102;-94
2021/06/11 10:47:35;;;;;;;28.80;18.13;;;;;;;23.33;50.74;92890.03;4902284;29;20045;-93
2021/06/11 10:50:49;;;;;;;24.25;16.98;;;;;;;23.03;49.47;92849.81;4876666;29;20049;-92
2021/06/11 10:57:32;;;;;;;;;;;;;;;;;;;;;
2021/06/11 11:16:39;;;;;;;;;;;;;;;;;;;;;
2021/06/11 11:20:15;;;;;;;21.15;14.52;;;;;;;23.43;48.02;92868.06;4874372;29;20055;-94
2021/06/11 11:23:57;;;;;;;;;;;;;;;;;;;;;
2021/06/11 11:45:57;;;;;;;18.63;11.65;;;;;;;24.00;43.89;92819.28;4890515;29;20049;-93
2021/06/11 11:48:52;;;;;;;;;;;;;;;;;;;;;
2021/06/11 11:52:42;;;;;;;;;;;;;;;;;;;;;
2021/06/11 11:59:06;;;;;;;16.80;12.23;;;;;;;24.80;42.71;92838.59;5007961;23;20027;-79
2021/06/11 12:01:39;;;;;;;18.55;11.10;;;;;;;25.42;41.21;92832.72;4990514;28;20046;-79
2021/06/11 12:04:04;;;;;;;17.83;10.70;;;;;;;25.22;41.60;92836.72;5015370;28;20046;-79
2021/06/11 12:06:30;;;;;;;16.85;10.20;;;;;;;25.45;40.08;92833.88;5017624;28;20607;-78
2021/06/11 12:08:56;;;;;;;15.45;10.40;;;;;;;25.13;40.91;92837.03;5017143;28;20238;-81
2021/06/11 12:11:21;;;;;;;20.50;11.73;;;;;;;25.44;42.72;92835.00;5016639;28;20073;-83
2021/06/11 12:13:47;;;;;;;14.93;10.43;;;;;;;25.89;37.89;92823.09;5017176;28;20430;-81
2021/06/11 12:16:14;;;;;;;13.60;9.18;;;;;;;25.90;39.84;92821.97;5014559;28;20085;-81
2021/06/11 12:18:40;;;;;;;16.45;9.90;;;;;;;25.85;40.28;92829.56;5017278;28;20046;-82
2021/06/11 12:21:08;;;;;;;13.07;9.98;;;;;;;25.16;41.43;92811.41;5016185;28;20041;-82
2021/06/11 12:23:35;;;;;;;15.52;11.07;;;;;;;24.92;42.78;92827.63;5016323;28;20045;-81
2021/06/11 12:26:01;;;;;;;19.52;12.43;;;;;;;24.76;43.72;92815.63;5016444;28;20042;-81
2021/06/11 12:28:26;;;;;;;23.35;15.52;;;;;;;24.73;46.76;92825.16;5016268;28;20180;-82
2021/06/11 12:30:52;;;;;;;21.48;15.48;;;;;;;25.33;45.96;92811.59;5015974;28;20080;-82
2021/06/11 12:33:17;;;;;;;27.95;16.45;;;;;;;25.50;45.84;92815.53;4999492;28;20037;-83
2021/06/11 12:35:43;;;;;;;24.80;15.38;;;;;;;25.16;45.81;92811.41;4984988;28;20409;-83
2021/06/11 12:38:09;;;;;;;22.55;16.33;;;;;;;24.88;47.55;92815.34;4997680;28;20046;-83
2021/06/11 12:40:37;;;;;;;24.90;15.32;;;;;;;25.19;47.04;92813.38;5000457;28;20073;-83
2021/06/11 12:43:04;;;;;;;25.95;14.68;;;;;;;25.32;46.94;92810.03;5015975;28;20438;-82
2021/06/11 12:45:32;;;;;;;30.38;15.20;;;;;;;25.14;46.83;92803.75;5016448;28;20475;-81
2021/06/11 12:47:58;;;;;;;24.63;14.75;;;;;;;25.34;48.03;92801.63;5016671;28;20045;-82
2021/06/11 12:50:24;;;;;;;24.23;16.50;;;;;;;25.91;48.27;92801.28;5016638;28;20569;-82
2021/06/11 12:52:50;;;;;;;25.95;16.95;;;;;;;26.30;47.00;92785.38;5016499;28;20394;-83
2021/06/11 12:55:16;;;;;;;30.25;20.73;;;;;;;26.33;47.11;92787.31;4998954;28;20050;-83
2021/06/11 12:57:42;;;;;;;27.90;19.40;;;;;;;26.46;47.15;92781.59;5014353;28;20042;-82
2021/06/11 13:00:09;;;;;;;30.02;19.27;;;;;;;26.15;48.13;92778.41;4996590;28;20060;-83
2021/06/11 13:02:35;;;;;;;24.00;18.25;;;;;;;26.66;46.92;92774.78;5017074;28;20049;-82
2021/06/11 13:05:02;;;;;;;30.08;19.70;;;;;;;27.29;45.61;92771.78;4999930;28;20119;-82
2021/06/11 13:07:28;;;;;;;26.63;16.42;;;;;;;27.79;45.13;92767.16;5016768;28;20050;-82
2021/06/11 13:09:54;;;;;;;41.42;19.60;;;;;;;27.76;44.79;92775.22;5014544;28;20466;-82
2021/06/11 13:12:20;;;;;;;28.90;20.95;;;;;;;27.59;45.83;92769.47;5016657;28;20049;-82
2021/06/11 13:14:45;;;;;;;35.15;21.50;;;;;;;26.94;47.37;92766.00;5016042;28;20136;-82
2021/06/11 13:17:11;;;;;;;33.90;21.13;;;;;;;26.56;47.85;92767.47;5016008;28;20127;-83
2021/06/11 13:19:38;;;;;;;29.65;18.88;;;;;;;27.46;45.51;92778.34;5017512;28;20050;-83
2021/06/11 13:22:04;;;;;;;32.72;22.30;;;;;;;27.41;44.13;92769.50;5015335;28;20045;-83
2021/06/11 13:24:30;;;;;;;29.65;18.83;;;;;;;28.14;43.96;92762.84;5014692;28;20120;-83
2021/06/11 13:26:55;;;;;;;26.80;17.67;;;;;;;28.40;42.87;92772.34;5017443;28;20069;-83
2021/06/11 13:29:22;;;;;;;30.70;20.55;;;;;;;28.15;42.40;92745.56;4999194;28;20073;-83
2021/06/11 13:31:48;;;;;;;26.33;17.98;;;;;;;28.29;42.69;92752.78;5015474;28;20046;-80
2021/06/11 13:34:14;;;;;;;33.70;21.85;;;;;;;25.84;45.09;92758.31;5000817;28;20072;-83
2021/06/11 13:36:39;;;;;;;27.00;18.52;;;;;;;26.32;45.24;92755.47;5016491;28;20046;-83
2021/06/11 13:39:05;;;;;;;31.95;19.13;;;;;;;26.42;46.77;92745.94;4999510;28;20046;-83
2021/06/11 13:41:31;;;;;;;24.90;18.00;;;;;;;26.46;46.73;92755.53;5016332;28;20627;-82
2021/06/11 13:43:57;;;;;;;28.77;19.95;;;;;;;26.25;46.40;92760.81;4998370;28;20125;-82
2021/06/11 13:46:23;;;;;;;29.35;19.55;;;;;;;25.39;49.11;92755.72;4999020;28;20403;-82
2021/06/11 13:48:49;;;;;;;41.67;24.25;;;;;;;25.43;47.60;92759.22;5013937;28;20034;-82
2021/06/11 13:51:15;;;;;;;29.67;21.63;;;;;;;24.55;50.17;92763.41;5013924;28;20197;-83
2021/06/11 13:53:41;;;;;;;28.63;20.70;;;;;;;24.83;50.06;92760.22;4998972;28;20050;-82
2021/06/11 13:56:07;;;;;;;24.92;18.17;;;;;;;25.07;50.33;92756.22;5013911;28;20060;-82
2021/06/11 13:58:32;;;;;;;25.75;17.83;;;;;;;25.23;49.76;92758.69;4998055;28;20136;-83
2021/06/11 14:00:58;;;;;;;27.85;19.90;;;;;;;25.29;48.83;92759.13;5031343;28;20041;-83
2021/06/11 14:03:24;;;;;;;27.75;19.55;;;;;;;25.29;49.74;92757.22;5035728;28;20089;-82
2021/06/11 14:05:49;;;;;;;24.20;17.65;;;;;;;25.42;49.40;92746.19;5035711;28;20030;-83
2021/06/11 14:08:15;;;;;;;30.42;19.60;;;;;;;25.46;47.64;92745.06;5017777;28;20124;-83
2021/06/11 14:10:41;;;;;;;28.35;19.45;;;;;;;25.49;48.11;92733.63;5034325;28;20057;-83
2021/06/11 14:13:06;;;;;;;23.92;17.48;;;;;;;25.52;48.38;92735.53;5002038;28;20080;-82
2021/06/11 14:15:33;;;;;;;26.50;18.33;;;;;;;25.59;47.87;92734.03;5022413;28;20034;-83
2021/06/11 14:18:00;;;;;;;29.80;19.92;;;;;;;25.39;47.34;92731.63;5015279;28;20130;-83
2021/06/11 14:20:26;;;;;;;25.25;17.42;;;;;;;25.39;48.34;92728.94;5004846;28;20041;-83
2021/06/11 14:22:51;;;;;;;30.05;18.13;;;;;;;25.44;48.45;92728.59;5001583;28;20050;-82
2021/06/11 14:25:18;;;;;;;28.48;17.70;;;;;;;25.98;47.41;92730.81;5033833;28;20054;-82
2021/06/11 14:27:44;;;;;;;23.35;16.48;;;;;;;26.63;46.82;92721.84;5035961;28;20052;-82
2021/06/11 14:30:11;;;;;;;26.33;15.48;;;;;;;27.20;45.24;92721.13;5016616;28;20427;-82
2021/06/11 14:32:37;;;;;;;24.55;15.25;;;;;;;27.62;44.44;92725.69;5034200;28;20073;-83
2021/06/11 14:35:04;;;;;;;22.85;15.90;;;;;;;27.82;42.32;92722.56;5018046;28;20056;-82
2021/06/11 14:37:29;;;;;;;26.60;16.85;;;;;;;27.23;41.63;92719.63;5034166;28;20426;-83
2021/06/11 14:39:55;;;;;;;21.73;16.38;;;;;;;26.64;45.43;92718.03;5032505;28;20140;-83
2021/06/11 14:42:20;;;;;;;25.77;15.48;;;;;;;26.26;45.13;92720.19;5035112;28;20123;-80
2021/06/11 14:44:46;;;;;;;22.15;15.80;;;;;;;26.49;45.64;92716.44;5017071;28;20439;-82
2021/06/11 14:47:12;;;;;;;27.27;16.65;;;;;;;25.91;46.29;92713.53;5034554;28;20060;-81
2021/06/11 14:49:38;;;;;;;26.02;17.67;;;;;;;25.38;47.53;92716.69;5034096;28;20166;-80
2021/06/11 14:52:06;;;;;;;22.92;15.35;;;;;;;24.71;50.16;92715.00;5031608;28;20095;-79
2021/06/11 14:54:36;;;;;;;30.58;17.52;;;;;;;24.33;50.15;92718.81;5033489;28;20134;-79
2021/06/11 14:57:07;;;;;;;33.90;21.73;;;;;;;23.39;52.88;92709.63;5031264;28;20053;-80
2021/06/11 14:59:34;;;;;;;39.97;22.65;;;;;;;23.52;52.43;92723.53;5030975;28;20421;-81
2021/06/11 15:02:00;;;;;;;37.35;22.55;;;;;;;23.09;54.04;92717.59;5032784;28;20041;-81
2021/06/11 15:04:25;;;;;;;36.05;23.15;;;;;;;22.76;54.15;92718.19;5030381;28;20099;-80
2021/06/11 15:06:51;;;;;;;36.55;22.33;;;;;;;22.52;55.05;92711.31;5031787;28;20038;-80
2021/06/11 15:09:17;;;;;;;34.60;22.80;;;;;;;22.41;54.85;92721.78;5014572;28;20205;-80
2021/06/11 15:11:43;;;;;;;39.05;24.17;;;;;;;22.29;54.65;92721.94;5015549;28;20349;-80
2021/06/11 15:14:09;;;;;;;34.45;23.25;;;;;;;22.21;54.43;92721.03;5031862;28;20075;-81
2021/06/11 15:16:35;;;;;;;37.70;22.70;;;;;;;22.06;54.94;92722.63;5015671;28;20559;-80
2021/06/11 15:19:03;;;;;;;33.92;22.48;;;;;;;21.89;54.94;92737.16;5032795;28;20495;-78
2021/06/11 15:21:30;;;;;;;37.03;20.48;;;;;;;21.77;54.67;92740.75;5032768;28;20041;-79
2021/06/11 15:23:56;;;;;;;35.45;20.45;;;;;;;21.59;54.55;92736.91;4994304;28;20109;-79
2021/06/11 15:26:22;;;;;;;31.48;21.65;;;;;;;21.48;54.97;92743.91;5035027;28;20515;-79
2021/06/11 15:28:47;;;;;;;32.42;21.02;;;;;;;21.53;54.44;92752.41;5002182;28;20053;-80
2021/06/11 15:31:13;;;;;;;34.45;17.63;;;;;;;21.54;54.46;92753.19;5019623;28;20054;-80
2021/06/11 15:33:39;;;;;;;28.55;16.63;;;;;;;21.32;54.03;92752.69;5036579;28;20033;-80
2021/06/11 15:36:06;;;;;;;21.17;14.38;;;;;;;21.41;53.22;92755.19;5002788;28;20057;-78
2021/06/11 15:38:31;;;;;;;22.80;14.30;;;;;;;21.16;54.50;92758.00;5036058;28;20045;-79
2021/06/11 15:40:58;;;;;;;23.67;14.32;;;;;;;21.37;52.65;92767.63;5035614;28;20553;-79
2021/06/11 15:43:24;;;;;;;23.55;14.15;;;;;;;21.26;52.82;92769.28;5036189;28;20403;-80
2021/06/11 15:45:50;;;;;;;22.23;13.80;;;;;;;21.26;52.68;92775.38;5036342;28;20052;-79
2021/06/11 15:48:20;;;;;;;26.50;15.13;;;;;;;21.32;52.26;92767.88;5005051;28;20050;-78
2021/06/11 15:50:46;;;;;;;26.75;16.23;;;;;;;21.27;52.60;92765.47;5036002;28;20052;-80
2021/06/11 15:53:11;;;;;;;24.10;14.93;;;;;;;21.50;52.20;92762.97;4994074;28;20033;-80
2021/06/11 15:55:38;;;;;;;28.25;16.85;;;;;;;21.75;51.39;92758.19;5036241;28;20061;-80
2021/06/11 15:58:03;;;;;;;27.08;14.95;;;;;;;22.38;51.09;92765.94;5036381;28;20076;-81
2021/06/11 16:00:29;;;;;;;36.88;17.65;;;;;;;22.23;50.14;92764.91;5019446;28;20088;-81
2021/06/11 16:02:55;;;;;;;27.40;16.65;;;;;;;22.63;49.90;92762.97;5029848;28;20042;-80
2021/06/11 16:05:21;;;;;;;26.63;15.88;;;;;;;23.11;49.73;92765.31;5028858;28;20096;-81
2021/06/11 16:07:48;;;;;;;32.47;20.27;;;;;;;23.06;48.57;92759.13;5036726;28;20395;-80
2021/06/11 16:10:13;;;;;;;36.47;23.33;;;;;;;23.05;48.46;92756.81;5025269;28;20124;-80
2021/06/11 16:12:39;;;;;;;37.20;22.85;;;;;;;22.93;49.65;92770.31;5027075;28;20576;-79
2021/06/11 16:15:06;;;;;;;40.53;25.60;;;;;;;22.66;49.73;92756.91;5022906;28;20041;-80
2021/06/11 16:17:33;;;;;;;36.38;23.23;;;;;;;22.97;49.63;92752.47;5014782;28;20046;-79
2021/06/11 16:19:59;;;;;;;39.30;23.67;;;;;;;23.48;48.88;92752.09;5019824;28;20073;-81
2021/06/11 16:22:24;;;;;;;38.08;23.30;;;;;;;23.38;48.75;92747.41;5017080;28;20042;-82
2021/06/11 16:24:51;;;;;;;38.78;23.80;;;;;;;23.27;49.46;92758.69;5016189;28;20030;-84
2021/06/11 16:27:17;;;;;;;42.13;23.80;;;;;;;23.38;49.93;92758.84;5016078;28;20057;-82
2021/06/11 16:29:43;;;;;;;33.88;22.48;;;;;;;23.80;48.86;92768.63;5016180;28;20053;-78
2021/06/11 16:32:11;;;;;;;57.40;27.00;;;;;;;23.64;48.94;92770.66;5017019;28;20042;-81
2021/06/11 16:34:37;;;;;;;44.70;27.17;;;;;;;23.82;48.52;92769.03;5016532;28;20493;-80
2021/06/11 16:37:02;;;;;;;45.65;26.85;;;;;;;23.75;47.52;92779.63;5013094;28;20038;-80
2021/06/11 16:39:28;;;;;;;41.33;26.15;;;;;;;23.05;48.66;92768.25;5015103;28;20076;-80
2021/06/11 16:41:54;;;;;;;42.25;27.15;;;;;;;23.63;48.79;92785.16;5022407;28;20495;-80
2021/06/11 16:44:20;;;;;;;39.15;26.42;;;;;;;24.02;48.41;92784.94;5021596;28;20061;-80
2021/06/11 16:46:45;;;;;;;45.05;28.30;;;;;;;24.25;47.61;92782.94;5046981;28;20046;-80
2021/06/11 16:49:11;;;;;;;41.25;25.35;;;;;;;24.22;47.08;92783.66;4996752;28;20113;-81
2021/06/11 16:51:37;;;;;;;39.47;25.52;;;;;;;23.94;46.80;92777.97;5020028;28;20058;-81
2021/06/11 16:54:04;;;;;;;41.75;25.98;;;;;;;23.76;47.60;92773.16;5023047;28;20046;-80
2021/06/11 16:56:30;;;;;;;42.60;26.40;;;;;;;23.42;47.39;92781.03;5021459;28;20045;-83
2021/06/11 16:58:58;;;;;;;41.53;24.40;;;;;;;23.19;46.84;92788.31;5013743;28;20057;-81
2021/06/11 17:01:28;;;;;;;40.47;26.27;;;;;;;23.15;47.87;92788.25;5033348;28;20400;-80
2021/06/11 17:03:54;;;;;;;39.83;24.77;;;;;;;22.83;48.68;92795.69;5031126;28;20116;-81
2021/06/11 17:06:21;;;;;;;44.75;25.92;;;;;;;22.89;49.32;92791.59;5016246;28;20042;-80
2021/06/11 17:08:46;;;;;;;41.47;26.20;;;;;;;22.80;49.64;92794.50;5017007;28;20136;-80
2021/06/11 17:11:12;;;;;;;47.50;28.85;;;;;;;22.52;49.67;92789.44;5033976;28;20182;-81
2021/06/11 17:13:38;;;;;;;47.45;28.38;;;;;;;22.49;50.13;92806.13;5032779;28;20176;-80
2021/06/11 17:16:05;;;;;;;49.55;30.08;;;;;;;22.55;50.37;92815.41;5034764;28;20534;-82
2021/06/11 17:18:31;;;;;;;42.45;28.05;;;;;;;22.50;51.32;92806.94;5034394;28;20535;-81
2021/06/11 17:20:57;;;;;;;57.13;30.10;;;;;;;22.27;51.82;92809.50;5032061;28;20049;-81
2021/06/11 17:23:24;;;;;;;44.65;28.08;;;;;;;22.36;51.52;92812.72;5031170;28;20033;-80
2021/06/11 17:25:51;;;;;;;51.33;29.73;;;;;;;22.30;51.69;92809.59;5032403;28;20052;-80
2021/06/11 17:28:34;;;;;;;50.10;30.42;;;;;;;22.02;52.65;92820.41;5013347;28;20063;-80
2021/06/11 17:31:18;;;;;;;43.90;27.75;;;;;;;22.18;52.70;92813.16;5032605;28;20064;-80
2021/06/11 17:33:45;;;;;;;48.63;29.95;;;;;;;21.86;51.28;92822.34;5031727;28;20037;-80
2021/06/11 17:36:31;;;;;;;44.72;27.67;;;;;;;22.09;51.35;92815.25;5007938;28;20070;-80
2021/06/11 17:38:59;;;;;;;48.35;27.48;;;;;;;21.97;52.47;92818.03;5015485;28;20041;-80
2021/06/11 17:41:28;;;;;;;48.47;29.42;;;;;;;21.90;53.87;92818.66;5032590;28;20500;-80
2021/06/11 17:44:06;;;;;;;43.72;27.90;;;;;;;21.96;53.89;92817.25;5029623;28;20037;-79
2021/06/11 17:46:32;;;;;;;43.97;25.33;;;;;;;22.10;54.39;92824.78;5032721;28;20038;-80
2021/06/11 17:48:58;;;;;;;42.35;25.77;;;;;;;22.21;54.25;92828.47;5033245;28;20037;-79
2021/06/11 17:51:25;;;;;;;45.95;26.63;;;;;;;22.24;53.90;92826.97;5031615;28;20577;-80
2021/06/11 17:53:50;;;;;;;44.75;27.63;;;;;;;22.24;53.95;92827.75;5032974;28;20041;-81
2021/06/11 17:56:19;;;;;;;45.67;29.30;;;;;;;22.13;54.48;92828.63;5033100;28;20442;-80
2021/06/11 18:01:15;;;;;;;47.63;29.00;;;;;;;22.19;54.25;92833.34;5030740;28;20057;-80
2021/06/11 18:03:40;;;;;;;53.58;31.65;;;;;;;22.22;54.09;92840.69;5032804;28;20581;-80
2021/06/11 18:06:08;;;;;;;43.65;26.17;;;;;;;22.11;55.46;92837.00;5032401;28;20053;-80
2021/06/11 18:08:35;;;;;;;54.80;33.65;;;;;;;22.01;54.89;92850.88;5030510;28;20041;-79
2021/06/11 18:11:21;;;;;;;49.13;29.55;;;;;;;21.35;58.21;92857.72;5013903;28;20029;-79
2021/06/11 18:13:49;;;;;;;52.40;30.55;;;;;;;20.45;60.96;92854.66;5014553;28;20041;-80
2021/06/11 18:16:22;;;;;;;49.20;28.77;;;;;;;20.48;60.54;92861.94;5031506;28;20049;-79
2021/06/11 18:19:00;;;;;;;51.88;30.52;;;;;;;20.18;61.21;92856.94;5032943;28;20057;-79
2021/06/11 18:21:34;;;;;;;51.00;29.90;;;;;;;19.94;61.71;92865.72;5032235;28;20503;-79
2021/06/11 18:24:06;;;;;;;54.25;29.70;;;;;;;19.93;61.68;92867.63;5032508;28;20124;-79